Time;durP1;ratioP1;P1;durP2;ratioP2;P2;SDS_P1;SDS_P2;PMS_P1;PMS_P2;Temp;Humidity;BMP_temperature;BMP_pressure;BME280_temperature;BME280_humidity;BME280_pressure;Samples;Min_cycle;Max_cycle;Signal;HPM_P1;HPM_P2
2021/11/04 00:00:34;;;;;;;25.25;19.05;;;6.50;81.50;;;;;;4971998;28;20130;-83
2021/11/04 00:03:01;;;;;;;23.50;18.50;;;6.50;81.60;;;;;;4970465;28;20113;-82
2021/11/04 00:05:28;;;;;;;22.60;17.25;;;6.50;81.60;;;;;;4970444;28;20419;-82
2021/11/04 00:08:02;;;;;;;22.83;17.38;;;6.50;81.50;;;;;;4968178;28;20738;-82
2021/11/04 00:10:30;;;;;;;;;;;6.40;81.60;;;;;;4968520;28;20530;-83
2021/11/04 00:12:57;;;;;;;22.55;17.58;;;6.40;81.50;;;;;;4968927;28;19926;-83
2021/11/04 00:15:24;;;;;;;22.63;17.55;;;6.40;81.50;;;;;;4971386;28;20186;-82
2021/11/04 00:17:51;;;;;;;25.00;18.42;;;6.40;81.50;;;;;;4969740;28;20082;-83
2021/11/04 00:20:38;;;;;;;23.48;18.73;;;6.40;81.50;;;;;;4966416;28;20522;-83
2021/11/04 00:23:05;;;;;;;21.60;17.42;;;6.40;81.50;;;;;;4967943;28;20058;-83
2021/11/04 00:25:32;;;;;;;23.63;17.38;;;6.40;81.50;;;;;;4967899;28;20043;-83
2021/11/04 00:27:59;;;;;;;21.60;18.23;;;6.40;81.50;;;;;;4968449;28;20082;-83
2021/11/04 00:30:26;;;;;;;23.17;17.58;;;6.40;81.50;;;;;;4971496;28;20047;-83
2021/11/04 00:32:55;;;;;;;23.42;17.10;;;6.30;81.50;;;;;;4969533;28;20059;-83
2021/11/04 00:35:22;;;;;;;24.35;16.92;;;6.30;81.50;;;;;;4967787;28;20460;-83
2021/11/04 00:37:50;;;;;;;26.33;17.30;;;6.30;81.50;;;;;;4967619;28;20055;-83
2021/11/04 00:40:20;;;;;;;25.65;17.83;;;6.30;81.50;;;;;;4967528;28;20287;-82
2021/11/04 00:42:47;;;;;;;23.48;17.75;;;6.30;81.50;;;;;;4969670;28;20073;-83
2021/11/04 00:45:15;;;;;;;21.48;16.75;;;6.20;81.50;;;;;;4968566;28;20061;-83
2021/11/04 00:47:43;;;;;;;24.60;18.40;;;6.20;81.50;;;;;;4969451;28;20055;-83
2021/11/04 00:50:10;;;;;;;21.67;17.13;;;6.20;81.50;;;;;;4967386;28;20097;-83
2021/11/04 00:52:37;;;;;;;21.17;16.65;;;6.20;81.50;;;;;;4967531;28;20257;-83
2021/11/04 00:55:06;;;;;;;23.27;17.38;;;6.20;81.50;;;;;;4967168;28;20044;-82
2021/11/04 00:57:32;;;;;;;27.30;17.52;;;6.20;81.50;;;;;;4971330;28;20046;-83
2021/11/04 01:00:00;;;;;;;20.77;16.58;;;6.20;81.50;;;;;;4969233;28;20042;-82
2021/11/04 01:02:28;;;;;;;21.92;16.83;;;6.20;81.60;;;;;;4967473;28;20149;-82
2021/11/04 01:04:57;;;;;;;21.13;16.17;;;6.10;81.50;;;;;;4967129;28;20051;-83
2021/11/04 01:07:24;;;;;;;24.02;17.60;;;6.10;81.60;;;;;;4967104;28;20435;-82
2021/11/04 01:09:51;;;;;;;25.15;16.90;;;6.10;81.60;;;;;;4968687;28;20059;-83
2021/11/04 01:12:17;;;;;;;22.83;16.15;;;6.10;81.60;;;;;;4969982;28;20047;-83
2021/11/04 01:14:45;;;;;;;21.00;16.75;;;6.10;81.50;;;;;;4968653;28;20054;-83
2021/11/04 01:17:12;;;;;;;21.00;16.73;;;6.10;81.60;;;;;;4967022;28;20113;-82
2021/11/04 01:19:39;;;;;;;22.25;17.10;;;6.10;81.60;;;;;;4966755;28;20046;-82
2021/11/04 01:22:06;;;;;;;24.55;16.92;;;6.00;81.50;;;;;;4966928;28;20052;-82
2021/11/04 01:24:33;;;;;;;21.60;16.00;;;6.00;81.50;;;;;;4970922;28;20059;-83
2021/11/04 01:27:00;;;;;;;28.10;16.92;;;6.00;81.50;;;;;;4969027;28;20054;-82
2021/11/04 01:29:27;;;;;;;20.63;16.33;;;6.00;81.50;;;;;;4966155;28;20082;-83
2021/11/04 01:31:54;;;;;;;22.33;15.82;;;6.00;81.60;;;;;;4966698;28;20046;-83
2021/11/04 01:34:21;;;;;;;22.33;17.23;;;6.00;81.50;;;;;;4966406;28;20055;-83
2021/11/04 01:36:48;;;;;;;23.00;16.13;;;6.00;81.60;;;;;;4967065;28;20103;-83
2021/11/04 01:39:15;;;;;;;24.10;16.88;;;6.00;81.60;;;;;;4969212;28;20057;-83
2021/11/04 01:41:42;;;;;;;24.98;17.48;;;6.00;81.60;;;;;;4968501;28;20051;-82
2021/11/04 01:44:12;;;;;;;21.70;16.73;;;6.00;81.60;;;;;;4966193;28;20050;-83
2021/11/04 01:46:39;;;;;;;22.60;17.13;;;6.00;81.60;;;;;;4966352;28;20078;-82
2021/11/04 01:49:07;;;;;;;22.00;16.38;;;5.90;81.60;;;;;;4966056;28;20084;-83
2021/11/04 01:51:34;;;;;;;21.55;15.82;;;5.90;81.60;;;;;;4970089;28;20054;-82
2021/11/04 01:54:02;;;;;;;24.77;17.58;;;5.90;81.60;;;;;;4968720;28;20100;-83
2021/11/04 01:56:29;;;;;;;23.75;17.88;;;5.90;81.60;;;;;;4964716;28;20054;-83
2021/11/04 01:58:56;;;;;;;23.08;17.40;;;5.90;81.60;;;;;;4966321;28;20459;-83
2021/11/04 02:01:23;;;;;;;22.48;16.17;;;5.90;81.60;;;;;;4966258;28;20117;-83
2021/11/04 02:04:07;;;;;;;23.38;17.48;;;5.90;81.60;;;;;;4967833;28;20113;-83
2021/11/04 02:06:49;;;;;;;23.88;17.48;;;5.90;81.70;;;;;;4954093;28;20079;-83
2021/11/04 02:09:47;;;;;;;22.55;16.33;;;5.90;81.70;;;;;;4955627;28;20584;-83
2021/11/04 02:12:28;;;;;;;20.20;15.90;;;5.90;81.70;;;;;;4968159;28;20051;-83
2021/11/04 02:14:58;;;;;;;20.38;15.88;;;5.90;81.70;;;;;;4967951;28;20062;-83
2021/11/04 02:17:29;;;;;;;21.45;15.93;;;5.80;81.70;;;;;;4966229;28;20109;-82
2021/11/04 02:19:59;;;;;;;22.58;16.35;;;5.90;81.70;;;;;;4960075;28;20550;-82
2021/11/04 02:22:37;;;;;;;22.63;16.15;;;5.80;81.70;;;;;;4958139;28;20467;-83
2021/11/04 02:25:28;;;;;;;21.10;15.77;;;5.80;81.80;;;;;;4966050;28;20047;-82
2021/11/04 02:27:58;;;;;;;22.27;15.95;;;5.80;81.80;;;;;;4966723;28;20124;-83
2021/11/04 02:30:27;;;;;;;20.90;15.43;;;5.80;81.80;;;;;;4970127;28;20058;-82
2021/11/04 02:32:56;;;;;;;23.13;16.33;;;5.80;81.80;;;;;;4967865;28;20062;-83
2021/11/04 02:35:23;;;;;;;22.55;16.30;;;5.80;81.90;;;;;;4965919;28;20058;-83
2021/11/04 02:37:52;;;;;;;20.13;15.07;;;5.80;81.90;;;;;;4965757;28;20047;-83
2021/11/04 02:40:21;;;;;;;20.73;15.05;;;5.80;82.00;;;;;;4965457;28;20055;-83
2021/11/04 02:42:50;;;;;;;20.48;15.40;;;5.80;82.00;;;;;;4967705;28;20571;-83
2021/11/04 02:45:23;;;;;;;22.10;14.65;;;5.80;82.00;;;;;;4968651;28;20063;-83
2021/11/04 02:48:11;;;;;;;18.75;13.90;;;5.80;82.10;;;;;;4968600;28;20125;-83
2021/11/04 02:50:38;;;;;;;20.17;15.20;;;5.80;82.10;;;;;;4967520;28;20113;-83
2021/11/04 02:53:05;;;;;;;21.67;15.20;;;5.80;82.20;;;;;;4965445;28;20051;-82
2021/11/04 02:55:37;;;;;;;20.95;15.52;;;5.90;82.30;;;;;;4963828;28;20097;-83
2021/11/04 02:58:06;;;;;;;19.40;13.90;;;5.90;82.30;;;;;;4965757;28;20043;-83
2021/11/04 03:00:54;;;;;;;20.25;14.18;;;5.90;82.40;;;;;;4969727;28;20500;-83
2021/11/04 03:03:21;;;;;;;19.85;14.45;;;5.90;82.50;;;;;;4969219;28;20508;-83
2021/11/04 03:05:49;;;;;;;17.13;12.90;;;5.90;82.70;;;;;;4967524;28;20156;-83
2021/11/04 03:08:16;;;;;;;18.13;12.80;;;6.00;82.80;;;;;;4966508;28;20081;-83
2021/11/04 03:10:43;;;;;;;17.15;12.32;;;6.00;82.80;;;;;;4968991;28;20118;-83
2021/11/04 03:13:10;;;;;;;18.30;12.68;;;6.00;82.90;;;;;;4969190;28;20047;-83
2021/11/04 03:15:40;;;;;;;18.42;11.70;;;6.10;83.00;;;;;;4972575;28;20047;-82
2021/11/04 03:18:08;;;;;;;16.33;11.48;;;6.10;83.10;;;;;;4971831;28;20051;-82
2021/11/04 03:20:37;;;;;;;15.93;11.40;;;6.20;83.10;;;;;;4970214;28;20062;-82
2021/11/04 03:23:24;;;;;;;19.45;11.45;;;6.20;83.20;;;;;;4967118;28;20050;-83
2021/11/04 03:25:53;;;;;;;16.15;10.65;;;6.20;83.20;;;;;;4968945;28;20179;-82
2021/11/04 03:28:23;;;;;;;18.92;10.05;;;6.20;83.30;;;;;;4968957;28;20043;-82
2021/11/04 03:30:51;;;;;;;15.20;10.75;;;6.30;83.40;;;;;;4970435;28;20059;-82
2021/11/04 03:33:18;;;;;;;14.88;9.73;;;6.30;83.50;;;;;;4972127;28;20051;-82
2021/11/04 03:35:46;;;;;;;12.25;9.23;;;6.40;83.50;;;;;;4969421;28;20051;-82
2021/11/04 03:38:16;;;;;;;13.13;9.60;;;6.40;83.50;;;;;;4959618;28;20504;-82
2021/11/04 03:40:43;;;;;;;11.75;8.68;;;6.40;83.60;;;;;;4963134;28;20046;-82
2021/11/04 03:43:10;;;;;;;14.00;9.80;;;6.40;83.60;;;;;;4971994;28;20344;-82
2021/11/04 03:45:37;;;;;;;11.30;8.25;;;6.50;83.60;;;;;;4956023;28;20058;-82
2021/11/04 03:48:06;;;;;;;10.93;7.70;;;6.50;83.60;;;;;;4971337;28;20050;-82
2021/11/04 03:50:34;;;;;;;10.45;7.43;;;6.50;83.60;;;;;;4961525;28;20117;-81
2021/11/04 03:53:01;;;;;;;11.55;6.28;;;6.60;83.70;;;;;;4963526;28;20061;-82
2021/11/04 03:55:31;;;;;;;12.52;6.82;;;6.60;83.70;;;;;;4968509;28;20059;-82
2021/11/04 03:57:59;;;;;;;8.55;5.72;;;6.60;83.70;;;;;;4968980;28;20570;-82
2021/11/04 04:00:27;;;;;;;9.05;5.38;;;6.70;83.80;;;;;;4972743;28;20059;-82
2021/11/04 04:03:08;;;;;;;7.55;5.00;;;6.60;83.80;;;;;;4971600;28;20051;-82
2021/11/04 04:05:35;;;;;;;8.60;5.53;;;6.60;83.80;;;;;;4969557;28;20058;-82
2021/11/04 04:08:03;;;;;;;6.63;3.90;;;6.70;83.80;;;;;;4967946;28;20058;-82
2021/11/04 04:10:32;;;;;;;8.23;5.22;;;6.70;83.90;;;;;;4967943;28;20047;-82
2021/11/04 04:13:04;;;;;;;6.20;3.70;;;6.70;83.90;;;;;;4967228;28;20050;-82
2021/11/04 04:15:30;;;;;;;8.13;4.22;;;6.80;83.90;;;;;;4957240;28;20109;-82
2021/11/04 04:17:57;;;;;;;6.32;3.47;;;6.80;83.90;;;;;;4970377;28;20054;-82
2021/11/04 04:20:26;;;;;;;6.25;3.28;;;6.80;83.90;;;;;;4966356;28;20562;-82
2021/11/04 04:22:53;;;;;;;6.18;3.10;;;6.80;84.00;;;;;;4967784;28;20094;-82
2021/11/04 04:25:20;;;;;;;7.78;2.80;;;6.90;84.00;;;;;;4967812;28;20507;-82
2021/11/04 04:27:47;;;;;;;7.05;3.15;;;6.90;84.00;;;;;;4970173;28;20054;-82
2021/11/04 04:30:14;;;;;;;6.85;2.60;;;6.90;84.00;;;;;;4970460;28;20503;-82
2021/11/04 04:32:41;;;;;;;5.38;2.70;;;6.90;84.10;;;;;;4972158;28;20051;-81
2021/11/04 04:35:08;;;;;;;5.43;2.20;;;6.90;84.10;;;;;;4967740;28;20515;-82
2021/11/04 04:37:48;;;;;;;6.32;2.35;;;6.90;84.10;;;;;;4969037;28;20047;-82
2021/11/04 04:40:15;;;;;;;5.65;2.35;;;6.90;84.10;;;;;;4967353;28;20054;-82
2021/11/04 04:42:42;;;;;;;5.45;2.13;;;6.90;84.20;;;;;;4970513;28;20093;-82
2021/11/04 04:45:10;;;;;;;5.35;1.60;;;7.00;84.20;;;;;;4970130;28;20082;-83
2021/11/04 04:47:37;;;;;;;7.03;1.90;;;7.00;84.20;;;;;;4969043;28;20050;-82
2021/11/04 04:50:05;;;;;;;8.43;2.17;;;7.00;84.30;;;;;;4967281;28;20110;-82
2021/11/04 04:52:32;;;;;;;3.83;1.52;;;7.00;84.30;;;;;;4965634;28;20047;-82
2021/11/04 04:54:59;;;;;;;5.82;2.08;;;7.10;84.30;;;;;;4967987;28;20126;-82
2021/11/04 04:57:26;;;;;;;9.43;2.17;;;7.10;84.30;;;;;;4971461;28;20054;-82
2021/11/04 04:59:57;;;;;;;3.63;1.63;;;7.10;84.40;;;;;;4969073;28;20050;-82
2021/11/04 05:02:25;;;;;;;3.72;1.55;;;7.10;84.40;;;;;;4967226;28;20098;-82
2021/11/04 05:04:53;;;;;;;5.70;1.65;;;7.20;84.40;;;;;;4966748;28;20054;-81
2021/11/04 05:07:21;;;;;;;6.35;1.48;;;7.20;84.40;;;;;;4967192;28;20050;-82
2021/11/04 05:09:48;;;;;;;6.28;1.60;;;7.10;84.50;;;;;;4968977;28;20051;-82
2021/11/04 05:12:14;;;;;;;3.80;1.75;;;7.20;84.50;;;;;;4969873;28;20072;-82
2021/11/04 05:14:41;;;;;;;6.15;1.60;;;7.20;84.50;;;;;;4968877;28;20054;-82
2021/11/04 05:17:08;;;;;;;7.70;1.55;;;7.20;84.60;;;;;;4967008;28;20538;-82
2021/11/04 05:19:35;;;;;;;7.57;1.80;;;7.20;84.50;;;;;;4966462;28;20046;-82
2021/11/04 05:22:02;;;;;;;7.95;1.73;;;7.30;84.60;;;;;;4966951;28;20481;-82
2021/11/04 05:24:34;;;;;;;5.20;1.52;;;7.20;84.60;;;;;;4971367;28;20047;-82
2021/11/04 05:27:06;;;;;;;4.93;1.40;;;7.30;84.60;;;;;;4968953;28;20528;-82
2021/11/04 05:29:33;;;;;;;5.40;1.70;;;7.30;84.60;;;;;;4966446;28;20057;-82
2021/11/04 05:32:01;;;;;;;4.45;1.40;;;7.30;84.60;;;;;;4962677;28;20047;-81
2021/11/04 05:34:29;;;;;;;4.22;1.30;;;7.30;84.60;;;;;;4958722;28;20050;-81
2021/11/04 05:36:56;;;;;;;10.70;1.70;;;7.30;84.60;;;;;;4967638;28;20539;-81
2021/11/04 05:39:22;;;;;;;6.68;1.60;;;7.30;84.60;;;;;;4970269;28;20054;-81
2021/11/04 05:41:49;;;;;;;5.88;1.70;;;7.40;84.60;;;;;;4968388;28;20523;-81
2021/11/04 05:44:16;;;;;;;7.32;1.38;;;7.40;84.60;;;;;;4966422;28;20062;-82
2021/11/04 05:47:04;;;;;;;6.25;1.40;;;7.40;84.70;;;;;;4966400;28;20055;-82
2021/11/04 05:49:31;;;;;;;5.30;1.55;;;7.40;84.70;;;;;;4965959;28;20054;-82
2021/11/04 05:51:58;;;;;;;5.28;1.27;;;7.40;84.70;;;;;;4967141;28;20043;-82
2021/11/04 05:54:25;;;;;;;3.72;1.25;;;7.40;84.70;;;;;;4970412;28;20467;-82
2021/11/04 05:56:52;;;;;;;5.70;1.55;;;7.40;84.70;;;;;;4968036;28;20487;-82
2021/11/04 05:59:19;;;;;;;8.40;1.60;;;7.40;84.70;;;;;;4966308;28;20054;-82
2021/11/04 06:01:46;;;;;;;4.88;1.17;;;7.50;84.70;;;;;;4966263;28;20042;-82
2021/11/04 06:04:12;;;;;;;6.90;1.98;;;7.40;84.70;;;;;;4965941;28;20051;-82
2021/11/04 06:06:39;;;;;;;5.65;1.60;;;7.50;84.70;;;;;;4969117;28;20047;-82
2021/11/04 06:09:06;;;;;;;4.05;1.25;;;7.50;84.70;;;;;;4968379;28;20054;-82
2021/11/04 06:11:33;;;;;;;8.10;1.67;;;7.50;84.70;;;;;;4965730;28;20066;-82
2021/11/04 06:14:01;;;;;;;5.70;1.60;;;7.50;84.80;;;;;;4966291;28;20042;-82
2021/11/04 06:16:28;;;;;;;4.70;1.92;;;7.50;84.70;;;;;;4966147;28;20050;-82
2021/11/04 06:18:55;;;;;;;6.45;2.10;;;7.50;84.80;;;;;;4966653;28;20042;-82
2021/11/04 06:21:22;;;;;;;4.97;1.58;;;7.50;84.80;;;;;;4968259;28;20051;-82
2021/11/04 06:23:49;;;;;;;8.30;2.03;;;7.50;84.80;;;;;;4967800;28;20091;-82
2021/11/04 06:26:16;;;;;;;9.05;1.98;;;7.50;84.80;;;;;;4965964;28;20062;-82
2021/11/04 06:28:43;;;;;;;5.35;1.50;;;7.60;84.80;;;;;;4965999;28;20129;-82
2021/11/04 06:31:30;;;;;;;10.05;2.20;;;7.60;84.80;;;;;;4965952;28;20504;-82
2021/11/04 06:34:12;;;;;;;6.00;1.95;;;7.60;84.80;;;;;;4964822;28;20401;-82
2021/11/04 06:36:40;;;;;;;5.50;1.90;;;7.60;84.80;;;;;;4969041;28;20047;-82
2021/11/04 06:39:07;;;;;;;7.05;2.10;;;7.60;84.80;;;;;;4966153;28;20058;-82
2021/11/04 06:41:34;;;;;;;6.88;2.17;;;7.60;84.80;;;;;;4967105;28;20074;-82
2021/11/04 06:44:01;;;;;;;5.43;1.95;;;7.60;84.80;;;;;;4969863;28;20043;-82
2021/11/04 06:46:30;;;;;;;4.47;1.80;;;7.60;84.90;;;;;;4968930;28;20545;-82
2021/11/04 06:49:12;;;;;;;6.72;2.50;;;7.60;84.90;;;;;;4968948;28;20117;-82
2021/11/04 06:52:03;;;;;;;6.70;2.38;;;7.60;84.90;;;;;;4958759;28;20039;-81
2021/11/04 06:54:30;;;;;;;6.50;2.13;;;7.60;84.90;;;;;;4958825;28;20051;-82
2021/11/04 06:57:01;;;;;;;9.27;2.10;;;7.60;84.90;;;;;;4971747;28;20051;-82
2021/11/04 06:59:34;;;;;;;9.35;2.20;;;7.60;84.90;;;;;;4968332;28;20046;-82
2021/11/04 07:02:03;;;;;;;5.63;1.88;;;7.60;84.90;;;;;;4968984;28;20463;-82
2021/11/04 07:04:36;;;;;;;5.72;1.83;;;7.60;84.90;;;;;;4969468;28;20042;-82
2021/11/04 07:07:12;;;;;;;7.55;1.88;;;7.60;85.00;;;;;;4969429;28;20051;-82
2021/11/04 07:09:41;;;;;;;8.00;1.77;;;7.60;85.00;;;;;;4972398;28;20047;-82
2021/11/04 07:12:11;;;;;;;5.25;1.70;;;7.70;85.00;;;;;;4972092;28;20051;-82
2021/11/04 07:14:41;;;;;;;3.75;1.40;;;7.60;85.00;;;;;;4970704;28;20423;-82
2021/11/04 07:17:09;;;;;;;5.40;2.00;;;7.70;85.00;;;;;;4968883;28;20046;-81
2021/11/04 07:19:37;;;;;;;6.82;2.45;;;7.70;85.00;;;;;;4969013;28;20047;-82
2021/11/04 07:22:25;;;;;;;5.80;1.55;;;7.70;85.00;;;;;;4969110;28;20051;-81
2021/11/04 07:25:04;;;;;;;5.32;1.70;;;7.70;85.10;;;;;;4970284;28;20058;-82
2021/11/04 07:27:38;;;;;;;3.30;1.50;;;7.70;85.10;;;;;;4958225;28;20090;-82
2021/11/04 07:30:08;;;;;;;9.07;1.80;;;7.60;85.10;;;;;;4971153;28;20050;-82
2021/11/04 07:32:54;;;;;;;4.70;1.52;;;7.70;85.20;;;;;;4960044;28;20350;-82
2021/11/04 07:35:24;;;;;;;3.80;1.42;;;7.70;85.20;;;;;;4967102;28;20042;-81
2021/11/04 07:37:52;;;;;;;2.63;1.20;;;7.60;85.20;;;;;;4968796;28;20058;-82
2021/11/04 07:40:22;;;;;;;5.28;1.63;;;7.70;85.20;;;;;;4968484;28;20055;-82
2021/11/04 07:42:49;;;;;;;4.55;1.70;;;7.70;85.20;;;;;;4970709;28;20057;-81
2021/11/04 07:45:17;;;;;;;6.00;1.42;;;7.70;85.30;;;;;;4971201;28;20077;-81
2021/11/04 07:47:45;;;;;;;2.60;1.33;;;7.70;85.30;;;;;;4970539;28;20117;-82
2021/11/04 07:50:15;;;;;;;3.17;1.30;;;7.70;85.30;;;;;;4968510;28;20103;-82
2021/11/04 07:52:43;;;;;;;3.67;1.55;;;7.70;85.30;;;;;;4968675;28;20106;-81
2021/11/04 07:55:10;;;;;;;5.72;1.60;;;7.70;85.30;;;;;;4967845;28;20443;-81
2021/11/04 07:57:39;;;;;;;5.82;1.85;;;7.70;85.30;;;;;;4971949;28;20125;-82
2021/11/04 08:00:12;;;;;;;5.65;1.55;;;7.70;85.30;;;;;;4970844;28;20105;-81
2021/11/04 08:02:43;;;;;;;7.63;1.23;;;7.70;85.30;;;;;;4970226;28;20046;-81
2021/11/04 08:05:13;;;;;;;5.00;1.10;;;7.70;85.30;;;;;;4968133;28;20523;-82
2021/11/04 08:07:41;;;;;;;4.25;1.15;;;7.70;85.30;;;;;;4967799;28;20101;-81
2021/11/04 08:10:14;;;;;;;3.13;1.20;;;7.70;85.30;;;;;;4959138;28;20058;-82
2021/11/04 08:13:07;;;;;;;3.78;1.00;;;7.70;85.30;;;;;;4959022;28;20050;-81
2021/11/04 08:15:38;;;;;;;2.25;1.00;;;7.70;85.30;;;;;;4956704;28;20055;-82
2021/11/04 08:18:07;;;;;;;2.85;1.05;;;7.70;85.30;;;;;;4971565;28;20050;-82
2021/11/04 08:20:34;;;;;;;5.20;2.10;;;7.70;85.30;;;;;;4970110;28;20344;-82
2021/11/04 08:23:07;;;;;;;5.57;3.35;;;7.70;85.40;;;;;;4969142;28;20558;-81
2021/11/04 08:25:33;;;;;;;9.02;5.55;;;7.70;85.40;;;;;;4967151;28;20508;-81
2021/11/04 08:28:20;;;;;;;6.95;2.80;;;7.70;85.40;;;;;;4969355;28;20047;-81
2021/11/04 08:31:01;;;;;;;5.75;2.60;;;7.70;85.40;;;;;;4957944;28;20431;-81
2021/11/04 08:33:28;;;;;;;5.53;2.47;;;7.70;85.40;;;;;;4957704;28;20050;-81
2021/11/04 08:35:55;;;;;;;6.55;2.63;;;7.70;85.50;;;;;;4970474;28;20055;-81
2021/11/04 08:38:22;;;;;;;4.47;2.25;;;7.70;85.50;;;;;;4968969;28;20054;-81
2021/11/04 08:40:49;;;;;;;6.40;2.47;;;7.70;85.50;;;;;;4963395;28;20508;-81
2021/11/04 08:43:16;;;;;;;6.05;2.55;;;7.80;85.60;;;;;;4969302;28;20456;-81
2021/11/04 08:45:45;;;;;;;4.30;2.38;;;7.80;85.60;;;;;;4957261;28;20059;-81
2021/11/04 08:48:15;;;;;;;5.20;2.17;;;7.80;85.60;;;;;;4957020;28;20054;-81
2021/11/04 08:50:42;;;;;;;4.80;2.28;;;7.80;85.70;;;;;;4959789;28;20058;-81
2021/11/04 08:53:09;;;;;;;5.63;2.50;;;7.80;85.70;;;;;;4959562;28;20075;-81
2021/11/04 08:55:37;;;;;;;6.85;2.40;;;7.90;85.70;;;;;;4959321;28;20138;-81
2021/11/04 08:58:04;;;;;;;5.18;2.10;;;7.90;85.80;;;;;;4959280;28;20424;-81
2021/11/04 09:00:31;;;;;;;6.60;2.58;;;7.90;85.80;;;;;;4954951;28;20050;-81
2021/11/04 09:02:58;;;;;;;3.72;1.95;;;7.90;85.80;;;;;;4970328;28;20050;-81
2021/11/04 09:05:25;;;;;;;3.75;1.80;;;8.00;85.80;;;;;;4959104;28;20051;-81
2021/11/04 09:07:52;;;;;;;7.50;2.00;;;8.00;85.80;;;;;;4959326;28;20043;-82
2021/11/04 09:10:21;;;;;;;6.97;1.95;;;8.00;85.80;;;;;;4959568;28;20054;-81
2021/11/04 09:12:49;;;;;;;4.20;1.90;;;8.10;85.80;;;;;;4957307;28;20051;-81
2021/11/04 09:15:16;;;;;;;4.00;1.83;;;8.20;85.80;;;;;;4956665;28;20424;-81
2021/11/04 09:17:44;;;;;;;4.38;2.03;;;8.20;85.80;;;;;;4958798;28;20051;-82
2021/11/04 09:20:14;;;;;;;3.70;1.98;;;8.30;85.80;;;;;;4958729;28;20051;-82
2021/11/04 09:22:45;;;;;;;5.93;1.90;;;8.30;85.80;;;;;;4960642;28;20043;-82
2021/11/04 09:25:13;;;;;;;3.58;1.70;;;8.30;85.70;;;;;;4958672;28;20467;-81
2021/11/04 09:27:50;;;;;;;6.07;1.90;;;8.40;85.70;;;;;;5064516;28;20404;-81
2021/11/04 09:30:18;;;;;;;4.10;1.70;;;8.40;85.70;;;;;;5048243;28;20419;-81
2021/11/04 09:32:46;;;;;;;2.80;1.38;;;8.40;85.70;;;;;;5051697;28;20049;-81
2021/11/04 09:35:14;;;;;;;4.07;1.40;;;8.40;85.70;;;;;;5049366;28;20072;-81
2021/11/04 09:37:46;;;;;;;6.20;1.65;;;8.40;85.60;;;;;;5049562;28;20552;-81
2021/11/04 09:40:33;;;;;;;5.03;1.88;;;8.40;85.60;;;;;;5080536;28;20127;-82
2021/11/04 09:43:01;;;;;;;3.70;1.25;;;8.50;85.50;;;;;;5048895;28;20036;-82
2021/11/04 09:45:29;;;;;;;3.90;1.20;;;8.50;85.60;;;;;;5029180;28;20049;-82
2021/11/04 09:48:05;;;;;;;3.38;1.30;;;8.50;85.50;;;;;;5060177;28;20045;-83
2021/11/04 09:50:33;;;;;;;3.22;1.42;;;8.60;85.50;;;;;;5050180;28;20394;-82
2021/11/04 09:52:59;;;;;;;2.10;1.10;;;8.60;85.50;;;;;;5048766;28;20053;-82
2021/11/04 09:55:28;;;;;;;7.55;1.67;;;8.60;85.50;;;;;;5048593;28;20041;-83
2021/11/04 09:58:01;;;;;;;3.58;1.42;;;8.60;85.60;;;;;;5047956;28;20532;-82
2021/11/04 10:00:41;;;;;;;5.13;1.60;;;8.70;85.70;;;;;;5027972;28;20045;-82
2021/11/04 10:03:12;;;;;;;4.55;1.75;;;8.70;85.70;;;;;;5059859;28;20134;-83
2021/11/04 10:05:51;;;;;;;3.03;1.40;;;8.80;85.80;;;;;;5050506;28;20060;-82
2021/11/04 10:08:34;;;;;;;3.60;1.50;;;8.90;86.00;;;;;;5048621;28;20107;-82
2021/11/04 10:11:13;;;;;;;3.35;1.80;;;8.90;86.10;;;;;;5047789;28;20559;-83
2021/11/04 10:13:40;;;;;;;4.63;1.65;;;9.00;86.00;;;;;;5048691;28;20437;-83
2021/11/04 10:16:09;;;;;;;2.70;1.30;;;9.20;86.00;;;;;;5048500;28;20390;-84
2021/11/04 10:18:45;;;;;;;3.30;1.20;;;9.20;86.00;;;;;;5044659;28;20077;-84
2021/11/04 10:21:33;;;;;;;3.03;1.10;;;9.30;85.90;;;;;;5029012;28;20107;-83
2021/11/04 10:24:01;;;;;;;7.03;3.85;;;9.30;85.80;;;;;;5051112;28;20053;-84
2021/11/04 10:26:44;;;;;;;7.82;4.93;;;9.40;85.70;;;;;;5048176;28;20103;-83
2021/11/04 10:29:13;;;;;;;3.70;1.50;;;9.40;85.60;;;;;;5078560;28;20057;-83
2021/11/04 10:31:52;;;;;;;5.82;2.90;;;9.40;85.40;;;;;;5047881;28;20060;-84
2021/11/04 10:34:33;;;;;;;4.80;2.10;;;9.40;85.30;;;;;;5047347;28;20052;-84
2021/11/04 10:37:11;;;;;;;4.78;2.35;;;9.40;85.20;;;;;;5046667;28;20049;-85
2021/11/04 10:40:06;;;;;;;5.68;1.98;;;9.40;85.10;;;;;;5022081;28;20041;-83
2021/11/04 10:42:55;;;;;;;4.45;2.30;;;9.40;85.00;;;;;;5015750;28;20049;-84
2021/11/04 10:45:24;;;;;;;4.45;2.00;;;9.40;84.90;;;;;;5032627;28;20522;-83
2021/11/04 10:48:19;;;;;;;3.80;1.70;;;9.30;84.90;;;;;;5037720;28;20417;-84
2021/11/04 10:50:47;;;;;;;4.15;1.80;;;9.30;84.80;;;;;;5037624;28;20046;-84
2021/11/04 10:53:22;;;;;;;4.35;1.98;;;9.30;84.80;;;;;;5035205;28;20064;-84
2021/11/04 10:56:11;;;;;;;3.58;1.73;;;9.30;84.80;;;;;;5034502;28;20057;-83
2021/11/04 10:58:38;;;;;;;5.68;2.08;;;9.20;84.80;;;;;;5034511;28;20434;-84
2021/11/04 11:01:48;;;;;;;4.40;1.80;;;9.30;84.80;;;;;;5031387;28;20050;-84
2021/11/04 11:04:21;;;;;;;5.65;1.40;;;9.20;84.80;;;;;;5043379;28;20123;-84
2021/11/04 11:06:53;;;;;;;4.50;1.52;;;9.20;84.80;;;;;;5032548;28;20054;-84
2021/11/04 11:09:25;;;;;;;4.35;1.80;;;9.20;84.80;;;;;;5031725;28;20053;-83
2021/11/04 11:11:58;;;;;;;3.67;1.50;;;9.30;84.80;;;;;;5037996;28;20049;-84
2021/11/04 11:14:26;;;;;;;4.03;1.55;;;9.20;84.90;;;;;;5035992;28;20049;-84
2021/11/04 11:16:55;;;;;;;3.83;1.40;;;9.30;84.90;;;;;;5051955;28;20053;-85
2021/11/04 11:19:42;;;;;;;5.82;1.52;;;9.30;84.90;;;;;;5034287;28;20146;-86
2021/11/04 11:22:13;;;;;;;4.75;1.92;;;9.30;84.90;;;;;;5033651;28;20360;-84
2021/11/04 11:24:57;;;;;;;3.50;1.73;;;9.40;84.90;;;;;;5030706;28;20465;-85
2021/11/04 11:27:25;;;;;;;7.07;3.00;;;9.40;84.90;;;;;;5029652;28;20916;-84
2021/11/04 11:29:52;;;;;;;4.47;1.95;;;9.40;84.80;;;;;;5036502;28;20107;-85
2021/11/04 11:32:27;;;;;;;5.57;1.90;;;9.40;84.80;;;;;;5032489;28;20517;-85
2021/11/04 11:35:10;;;;;;;3.85;1.90;;;9.40;84.80;;;;;;5033675;28;20057;-85
2021/11/04 11:37:57;;;;;;;4.55;2.00;;;9.40;84.70;;;;;;5032026;28;20533;-85
2021/11/04 11:40:27;;;;;;;4.57;1.88;;;9.40;84.70;;;;;;5032393;28;20480;-85
2021/11/04 11:43:10;;;;;;;5.05;2.00;;;9.40;84.70;;;;;;5031218;28;20410;-84
2021/11/04 11:46:02;;;;;;;4.77;1.80;;;9.40;84.60;;;;;;5014181;28;20054;-85
2021/11/04 11:48:29;;;;;;;3.38;1.80;;;9.40;84.60;;;;;;5011888;28;20316;-84
2021/11/04 11:50:57;;;;;;;3.55;1.60;;;9.40;84.60;;;;;;5035347;28;20461;-85
2021/11/04 11:53:39;;;;;;;3.28;1.63;;;9.40;84.60;;;;;;5034651;28;20052;-85
2021/11/04 11:56:20;;;;;;;3.80;1.60;;;9.40;84.60;;;;;;5032460;28;20049;-84
2021/11/04 11:59:19;;;;;;;4.30;1.83;;;9.40;84.60;;;;;;5032219;28;20140;-85
2021/11/04 12:01:47;;;;;;;3.47;1.75;;;9.40;84.60;;;;;;5031894;28;20123;-85
2021/11/04 12:04:31;;;;;;;3.38;1.67;;;9.40;84.70;;;;;;5032203;28;20135;-84
2021/11/04 12:06:59;;;;;;;4.68;1.92;;;9.50;84.70;;;;;;5030878;28;20525;-84
2021/11/04 12:09:43;;;;;;;3.22;1.60;;;9.50;84.70;;;;;;5028887;28;20548;-86
2021/11/04 12:12:44;;;;;;;4.55;1.80;;;9.50;84.70;;;;;;5043625;28;20056;-85
2021/11/04 12:15:11;;;;;;;3.95;1.67;;;9.50;84.70;;;;;;5043479;28;20080;-86
2021/11/04 12:17:39;;;;;;;3.45;1.50;;;9.60;84.70;;;;;;5034584;28;20494;-85
2021/11/04 12:20:07;;;;;;;4.35;1.60;;;9.60;84.70;;;;;;5031298;28;20045;-85
2021/11/04 12:22:40;;;;;;;3.72;1.52;;;9.60;84.60;;;;;;5031634;28;20660;-85
2021/11/04 12:25:13;;;;;;;2.95;1.50;;;9.70;84.50;;;;;;5031515;28;20045;-85
2021/11/04 12:27:43;;;;;;;4.22;1.90;;;9.70;84.40;;;;;;5028272;28;20084;-85
2021/11/04 12:30:17;;;;;;;5.72;1.60;;;9.70;84.40;;;;;;5032049;28;20049;-85
2021/11/04 12:32:55;;;;;;;;;;;9.60;84.30;;;;;;5034553;28;20053;-85
2021/11/04 12:35:22;;;;;;;4.50;1.60;;;9.70;84.20;;;;;;5031401;28;19921;-86
2021/11/04 12:37:50;;;;;;;6.30;1.83;;;9.60;84.20;;;;;;5032942;28;20053;-85
2021/11/04 12:40:17;;;;;;;3.08;1.38;;;9.70;84.20;;;;;;5029862;28;20513;-85
2021/11/04 12:42:45;;;;;;;5.35;1.65;;;9.60;84.10;;;;;;5029017;28;20058;-85
2021/11/04 12:45:26;;;;;;;3.15;1.38;;;9.70;84.10;;;;;;5031407;28;20081;-85
2021/11/04 12:48:01;;;;;;;5.13;1.80;;;9.70;84.10;;;;;;5034958;28;20529;-85
2021/11/04 12:50:30;;;;;;;3.00;1.58;;;9.70;84.00;;;;;;5033217;28;20505;-85
2021/11/04 12:53:11;;;;;;;3.90;1.65;;;9.70;84.00;;;;;;5031100;28;20057;-84
2021/11/04 12:55:39;;;;;;;3.85;1.35;;;9.60;84.00;;;;;;5029828;28;20049;-84
2021/11/04 12:58:09;;;;;;;4.88;1.85;;;9.60;83.90;;;;;;5031269;28;20045;-84
2021/11/04 13:00:37;;;;;;;4.85;1.77;;;9.60;83.90;;;;;;5027441;28;20088;-85
2021/11/04 13:03:07;;;;;;;5.05;1.38;;;9.60;83.90;;;;;;5033004;28;20065;-84
2021/11/04 13:05:39;;;;;;;3.15;1.50;;;9.60;83.80;;;;;;5033946;28;20056;-84
2021/11/04 13:08:08;;;;;;;4.47;1.88;;;9.60;83.80;;;;;;5030761;28;20502;-85
2021/11/04 13:10:49;;;;;;;4.10;1.63;;;9.60;83.80;;;;;;5031206;28;20368;-85
2021/11/04 13:13:20;;;;;;;4.18;1.48;;;9.60;83.80;;;;;;5029695;28;20132;-85